sensor_id;sensor_type;location;lat;lon;timestamp;pressure;altitude;pressure_sealevel;temperature;humidity
20111;BME280;10216;42.658;23.248;2022-10-16T00:00:31;94340.16;;;7.18;100.00
20111;BME280;10216;42.658;23.248;2022-10-16T00:02:57;94338.66;;;7.15;100.00
20111;BME280;10216;42.658;23.248;2022-10-16T00:05:23;94351.31;;;7.17;100.00
20111;BME280;10216;42.658;23.248;2022-10-16T00:07:48;94358.44;;;7.13;100.00
20111;BME280;10216;42.658;23.248;2022-10-16T00:10:13;94363.53;;;7.13;100.00
20111;BME280;10216;42.658;23.248;2022-10-16T00:12:39;94368.63;;;7.13;100.00
20111;BME280;10216;42.658;23.248;2022-10-16T00:15:05;94374.00;;;7.10;100.00
20111;BME280;10216;42.658;23.248;2022-10-16T00:17:31;94366.44;;;7.09;100.00
20111;BME280;10216;42.658;23.248;2022-10-16T00:19:57;94360.66;;;7.06;100.00
20111;BME280;10216;42.658;23.248;2022-10-16T00:22:23;94370.06;;;7.06;100.00
20111;BME280;10216;42.658;23.248;2022-10-16T00:24:48;94371.00;;;7.05;100.00
20111;BME280;10216;42.658;23.248;2022-10-16T00:27:14;94370.31;;;7.03;100.00
20111;BME280;10216;42.658;23.248;2022-10-16T00:29:39;94366.16;;;7.02;100.00
20111;BME280;10216;42.658;23.248;2022-10-16T00:32:04;94375.66;;;7.00;100.00
20111;BME280;10216;42.658;23.248;2022-10-16T00:34:30;94372.31;;;6.99;100.00
20111;BME280;10216;42.658;23.248;2022-10-16T00:36:55;94379.16;;;6.99;100.00
20111;BME280;10216;42.658;23.248;2022-10-16T00:39:21;94381.69;;;6.99;100.00
20111;BME280;10216;42.658;23.248;2022-10-16T00:41:47;94383.59;;;6.97;100.00
20111;BME280;10216;42.658;23.248;2022-10-16T00:47:11;94372.56;;;6.96;100.00
20111;BME280;10216;42.658;23.248;2022-10-16T00:49:38;94365.28;;;6.92;100.00
20111;BME280;10216;42.658;23.248;2022-10-16T00:52:04;94363.00;;;6.89;100.00
20111;BME280;10216;42.658;23.248;2022-10-16T00:54:31;94364.72;;;6.88;100.00
20111;BME280;10216;42.658;23.248;2022-10-16T00:57:00;94372.50;;;6.87;100.00
20111;BME280;10216;42.658;23.248;2022-10-16T00:59:38;94372.78;;;6.84;100.00
20111;BME280;10216;42.658;23.248;2022-10-16T01:02:06;94371.97;;;6.83;100.00
20111;BME280;10216;42.658;23.248;2022-10-16T01:04:38;94373.69;;;6.83;100.00
20111;BME280;10216;42.658;23.248;2022-10-16T01:07:18;94377.88;;;6.84;100.00
20111;BME280;10216;42.658;23.248;2022-10-16T01:12:31;94373.13;;;6.79;100.00
20111;BME280;10216;42.658;23.248;2022-10-16T01:17:43;94374.69;;;6.71;100.00
20111;BME280;10216;42.658;23.248;2022-10-16T01:22:47;94368.75;;;6.70;100.00
20111;BME280;10216;42.658;23.248;2022-10-16T01:25:22;94365.44;;;6.70;100.00
20111;BME280;10216;42.658;23.248;2022-10-16T01:27:51;94358.00;;;6.66;100.00
20111;BME280;10216;42.658;23.248;2022-10-16T01:30:21;94363.13;;;6.66;100.00
20111;BME280;10216;42.658;23.248;2022-10-16T01:33:04;94351.28;;;6.65;100.00
20111;BME280;10216;42.658;23.248;2022-10-16T01:35:41;94353.03;;;6.65;100.00
20111;BME280;10216;42.658;23.248;2022-10-16T01:38:33;94372.75;;;6.63;100.00
20111;BME280;10216;42.658;23.248;2022-10-16T01:43:53;94375.94;;;6.55;100.00
20111;BME280;10216;42.658;23.248;2022-10-16T01:46:22;94372.69;;;6.53;100.00
20111;BME280;10216;42.658;23.248;2022-10-16T01:48:49;94365.28;;;6.50;100.00
20111;BME280;10216;42.658;23.248;2022-10-16T01:51:19;94378.72;;;6.52;100.00
20111;BME280;10216;42.658;23.248;2022-10-16T01:53:53;94371.88;;;6.53;100.00
20111;BME280;10216;42.658;23.248;2022-10-16T01:56:20;94371.88;;;6.53;100.00
20111;BME280;10216;42.658;23.248;2022-10-16T01:58:55;94381.38;;;6.51;100.00
20111;BME280;10216;42.658;23.248;2022-10-16T02:01:25;94375.75;;;6.47;100.00
20111;BME280;10216;42.658;23.248;2022-10-16T02:03:55;94391.03;;;6.47;100.00
20111;BME280;10216;42.658;23.248;2022-10-16T02:06:22;94381.88;;;6.45;100.00
20111;BME280;10216;42.658;23.248;2022-10-16T02:08:48;94394.75;;;6.43;100.00
20111;BME280;10216;42.658;23.248;2022-10-16T02:11:14;94388.72;;;6.44;100.00
20111;BME280;10216;42.658;23.248;2022-10-16T02:13:45;94389.09;;;6.40;100.00
20111;BME280;10216;42.658;23.248;2022-10-16T02:16:12;94394.44;;;6.37;100.00
20111;BME280;10216;42.658;23.248;2022-10-16T02:18:39;94398.59;;;6.38;100.00
20111;BME280;10216;42.658;23.248;2022-10-16T02:21:25;94404.06;;;6.33;100.00
20111;BME280;10216;42.658;23.248;2022-10-16T02:24:03;94402.19;;;6.35;100.00
20111;BME280;10216;42.658;23.248;2022-10-16T02:29:32;94409.63;;;6.27;100.00
20111;BME280;10216;42.658;23.248;2022-10-16T02:32:03;94411.53;;;6.25;100.00
20111;BME280;10216;42.658;23.248;2022-10-16T02:34:32;94407.34;;;6.24;100.00
20111;BME280;10216;42.658;23.248;2022-10-16T02:36:59;94400.75;;;6.21;100.00
20111;BME280;10216;42.658;23.248;2022-10-16T02:39:27;94401.53;;;6.22;100.00
20111;BME280;10216;42.658;23.248;2022-10-16T02:41:53;94408.50;;;6.20;100.00
20111;BME280;10216;42.658;23.248;2022-10-16T02:44:19;94405.28;;;6.18;100.00
20111;BME280;10216;42.658;23.248;2022-10-16T02:46:44;94410.38;;;6.18;100.00
20111;BME280;10216;42.658;23.248;2022-10-16T02:49:10;94410.38;;;6.18;100.00
20111;BME280;10216;42.658;23.248;2022-10-16T02:51:35;94414.06;;;6.14;100.00
20111;BME280;10216;42.658;23.248;2022-10-16T02:54:01;94413.28;;;6.13;100.00
20111;BME280;10216;42.658;23.248;2022-10-16T02:56:27;94423.59;;;6.12;100.00
20111;BME280;10216;42.658;23.248;2022-10-16T02:58:52;94418.72;;;6.09;100.00
20111;BME280;10216;42.658;23.248;2022-10-16T03:01:18;94416.56;;;6.04;100.00
20111;BME280;10216;42.658;23.248;2022-10-16T03:03:45;94415.75;;;6.04;100.00
20111;BME280;10216;42.658;23.248;2022-10-16T03:06:11;94422.81;;;6.00;100.00
20111;BME280;10216;42.658;23.248;2022-10-16T03:08:36;94420.50;;;5.97;100.00
20111;BME280;10216;42.658;23.248;2022-10-16T03:11:01;94417.72;;;6.00;100.00
20111;BME280;10216;42.658;23.248;2022-10-16T03:13:27;94426.97;;;6.01;100.00
20111;BME280;10216;42.658;23.248;2022-10-16T03:15:52;94419.31;;;6.01;100.00
20111;BME280;10216;42.658;23.248;2022-10-16T03:18:17;94417.81;;;5.99;100.00
20111;BME280;10216;42.658;23.248;2022-10-16T03:20:43;94424.91;;;5.95;100.00
20111;BME280;10216;42.658;23.248;2022-10-16T03:23:09;94427.34;;;5.97;100.00
20111;BME280;10216;42.658;23.248;2022-10-16T03:25:34;94425.00;;;5.94;100.00
20111;BME280;10216;42.658;23.248;2022-10-16T03:28:00;94431.03;;;5.93;100.00
20111;BME280;10216;42.658;23.248;2022-10-16T03:30:25;94437.06;;;5.92;100.00
20111;BME280;10216;42.658;23.248;2022-10-16T03:32:50;94437.19;;;5.90;100.00
20111;BME280;10216;42.658;23.248;2022-10-16T03:35:19;94444.22;;;5.86;100.00
20111;BME280;10216;42.658;23.248;2022-10-16T03:37:45;94441.91;;;5.83;100.00
20111;BME280;10216;42.658;23.248;2022-10-16T03:40:10;94437.75;;;5.82;100.00
20111;BME280;10216;42.658;23.248;2022-10-16T03:42:36;94436.13;;;5.81;100.00
20111;BME280;10216;42.658;23.248;2022-10-16T03:45:01;94437.06;;;5.80;100.00
20111;BME280;10216;42.658;23.248;2022-10-16T03:47:26;94424.31;;;5.80;100.00
20111;BME280;10216;42.658;23.248;2022-10-16T03:49:52;94436.47;;;5.77;100.00
20111;BME280;10216;42.658;23.248;2022-10-16T03:52:17;94430.56;;;5.76;100.00
20111;BME280;10216;42.658;23.248;2022-10-16T03:54:43;94425.72;;;5.73;100.00
20111;BME280;10216;42.658;23.248;2022-10-16T03:57:08;94430.09;;;5.71;100.00
20111;BME280;10216;42.658;23.248;2022-10-16T03:59:34;94431.94;;;5.69;100.00
20111;BME280;10216;42.658;23.248;2022-10-16T04:01:59;94425.47;;;5.65;100.00
20111;BME280;10216;42.658;23.248;2022-10-16T04:04:24;94422.00;;;5.66;100.00
20111;BME280;10216;42.658;23.248;2022-10-16T04:06:50;94416.56;;;5.60;100.00
20111;BME280;10216;42.658;23.248;2022-10-16T04:09:16;94426.41;;;5.64;100.00
20111;BME280;10216;42.658;23.248;2022-10-16T04:11:44;94422.94;;;5.65;100.00
20111;BME280;10216;42.658;23.248;2022-10-16T04:14:11;94421.41;;;5.63;100.00
20111;BME280;10216;42.658;23.248;2022-10-16T04:16:37;94423.16;;;5.62;100.00
20111;BME280;10216;42.658;23.248;2022-10-16T04:19:02;94425.03;;;5.60;100.00
20111;BME280;10216;42.658;23.248;2022-10-16T04:21:27;94426.75;;;5.60;100.00
20111;BME280;10216;42.658;23.248;2022-10-16T04:23:53;94427.47;;;5.62;100.00
20111;BME280;10216;42.658;23.248;2022-10-16T04:26:18;94431.03;;;5.59;100.00
20111;BME280;10216;42.658;23.248;2022-10-16T04:28:44;94433.81;;;5.56;100.00
20111;BME280;10216;42.658;23.248;2022-10-16T04:31:09;94432.53;;;5.50;100.00
20111;BME280;10216;42.658;23.248;2022-10-16T04:33:35;94434.88;;;5.54;100.00
20111;BME280;10216;42.658;23.248;2022-10-16T04:36:01;94437.75;;;5.49;100.00
20111;BME280;10216;42.658;23.248;2022-10-16T04:38:27;94435.66;;;5.43;100.00
20111;BME280;10216;42.658;23.248;2022-10-16T04:40:53;94439.63;;;5.47;100.00
20111;BME280;10216;42.658;23.248;2022-10-16T04:43:18;94447.13;;;5.48;100.00
20111;BME280;10216;42.658;23.248;2022-10-16T04:45:44;94448.75;;;5.38;100.00
20111;BME280;10216;42.658;23.248;2022-10-16T04:48:09;94447.38;;;5.45;100.00
20111;BME280;10216;42.658;23.248;2022-10-16T04:50:35;94455.81;;;5.46;100.00
20111;BME280;10216;42.658;23.248;2022-10-16T04:53:00;94457.44;;;5.47;100.00
20111;BME280;10216;42.658;23.248;2022-10-16T04:55:28;94465.84;;;5.47;100.00
20111;BME280;10216;42.658;23.248;2022-10-16T04:57:53;94465.84;;;5.47;100.00
20111;BME280;10216;42.658;23.248;2022-10-16T05:00:19;94469.00;;;5.51;100.00
20111;BME280;10216;42.658;23.248;2022-10-16T05:02:44;94466.25;;;5.54;100.00
20111;BME280;10216;42.658;23.248;2022-10-16T05:05:09;94469.47;;;5.56;100.00
20111;BME280;10216;42.658;23.248;2022-10-16T05:07:35;94470.88;;;5.60;100.00
20111;BME280;10216;42.658;23.248;2022-10-16T05:10:00;94474.78;;;5.64;100.00
20111;BME280;10216;42.658;23.248;2022-10-16T05:12:26;94474.78;;;5.64;100.00
20111;BME280;10216;42.658;23.248;2022-10-16T05:14:51;94478.75;;;5.68;100.00
20111;BME280;10216;42.658;23.248;2022-10-16T05:17:16;94481.03;;;5.71;100.00
20111;BME280;10216;42.658;23.248;2022-10-16T05:19:42;94478.38;;;5.73;100.00
20111;BME280;10216;42.658;23.248;2022-10-16T05:22:09;94477.22;;;5.77;100.00
20111;BME280;10216;42.658;23.248;2022-10-16T05:24:35;94486.03;;;5.73;100.00
20111;BME280;10216;42.658;23.248;2022-10-16T05:27:00;94486.38;;;5.79;100.00
20111;BME280;10216;42.658;23.248;2022-10-16T05:29:26;94483.47;;;5.84;100.00
20111;BME280;10216;42.658;23.248;2022-10-16T05:31:52;94480.63;;;5.88;100.00
20111;BME280;10216;42.658;23.248;2022-10-16T05:34:18;94483.72;;;5.92;100.00
20111;BME280;10216;42.658;23.248;2022-10-16T05:36:43;94484.66;;;5.91;100.00
20111;BME280;10216;42.658;23.248;2022-10-16T05:39:10;94479.78;;;5.99;100.00
20111;BME280;10216;42.658;23.248;2022-10-16T05:41:36;94480.13;;;6.06;100.00
20111;BME280;10216;42.658;23.248;2022-10-16T05:44:04;94492.06;;;6.05;100.00
20111;BME280;10216;42.658;23.248;2022-10-16T05:46:29;94492.06;;;6.05;100.00
20111;BME280;10216;42.658;23.248;2022-10-16T05:48:55;94502.13;;;6.07;100.00
20111;BME280;10216;42.658;23.248;2022-10-16T05:51:20;94498.06;;;6.15;100.00
20111;BME280;10216;42.658;23.248;2022-10-16T05:53:45;94504.31;;;6.22;100.00
20111;BME280;10216;42.658;23.248;2022-10-16T05:56:13;94508.16;;;6.17;100.00
20111;BME280;10216;42.658;23.248;2022-10-16T05:58:39;94509.66;;;6.31;100.00
20111;BME280;10216;42.658;23.248;2022-10-16T06:01:14;94507.22;;;6.29;100.00
20111;BME280;10216;42.658;23.248;2022-10-16T06:03:40;94516.13;;;6.35;100.00
20111;BME280;10216;42.658;23.248;2022-10-16T06:06:20;94521.44;;;6.43;100.00
20111;BME280;10216;42.658;23.248;2022-10-16T06:08:47;94524.69;;;6.45;100.00
20111;BME280;10216;42.658;23.248;2022-10-16T06:11:19;94526.88;;;6.49;100.00
20111;BME280;10216;42.658;23.248;2022-10-16T06:13:44;94527.09;;;6.57;100.00
20111;BME280;10216;42.658;23.248;2022-10-16T06:16:11;94534.72;;;6.69;100.00
20111;BME280;10216;42.658;23.248;2022-10-16T06:18:37;94534.78;;;6.78;100.00
20111;BME280;10216;42.658;23.248;2022-10-16T06:21:19;94531.84;;;6.94;100.00
20111;BME280;10216;42.658;23.248;2022-10-16T06:23:45;94538.16;;;7.11;100.00
20111;BME280;10216;42.658;23.248;2022-10-16T06:26:15;94540.81;;;7.20;100.00
20111;BME280;10216;42.658;23.248;2022-10-16T06:28:42;94542.88;;;7.26;100.00
20111;BME280;10216;42.658;23.248;2022-10-16T06:31:08;94544.66;;;7.35;100.00
20111;BME280;10216;42.658;23.248;2022-10-16T06:33:35;94542.13;;;7.56;100.00
20111;BME280;10216;42.658;23.248;2022-10-16T06:36:05;94543.59;;;7.79;100.00
20111;BME280;10216;42.658;23.248;2022-10-16T06:38:31;94545.69;;;7.95;100.00
20111;BME280;10216;42.658;23.248;2022-10-16T06:40:57;94550.03;;;8.04;100.00
20111;BME280;10216;42.658;23.248;2022-10-16T06:43:22;94549.44;;;8.21;100.00
20111;BME280;10216;42.658;23.248;2022-10-16T06:45:55;94546.69;;;8.34;100.00
20111;BME280;10216;42.658;23.248;2022-10-16T06:48:22;94554.63;;;8.31;100.00
20111;BME280;10216;42.658;23.248;2022-10-16T06:51:01;94552.78;;;8.52;99.19
20111;BME280;10216;42.658;23.248;2022-10-16T06:53:29;94559.81;;;8.60;98.53
20111;BME280;10216;42.658;23.248;2022-10-16T06:55:55;94566.97;;;8.66;97.18
20111;BME280;10216;42.658;23.248;2022-10-16T06:58:20;94570.22;;;8.68;94.84
20111;BME280;10216;42.658;23.248;2022-10-16T07:00:46;94573.47;;;8.80;93.89
20111;BME280;10216;42.658;23.248;2022-10-16T07:03:12;94575.66;;;8.94;92.29
20111;BME280;10216;42.658;23.248;2022-10-16T07:05:41;94568.66;;;8.96;91.59
20111;BME280;10216;42.658;23.248;2022-10-16T07:08:07;94573.53;;;9.18;91.37
20111;BME280;10216;42.658;23.248;2022-10-16T07:10:33;94576.91;;;9.38;90.45
20111;BME280;10216;42.658;23.248;2022-10-16T07:12:59;94575.03;;;9.50;89.09
20111;BME280;10216;42.658;23.248;2022-10-16T07:15:25;94580.81;;;9.71;88.43
20111;BME280;10216;42.658;23.248;2022-10-16T07:17:51;94583.59;;;9.87;86.98
20111;BME280;10216;42.658;23.248;2022-10-16T07:20:16;94584.63;;;10.13;87.44
20111;BME280;10216;42.658;23.248;2022-10-16T07:22:42;94590.53;;;10.24;86.11
20111;BME280;10216;42.658;23.248;2022-10-16T07:25:07;94581.16;;;10.51;85.71
20111;BME280;10216;42.658;23.248;2022-10-16T07:27:33;94590.94;;;10.66;82.80
20111;BME280;10216;42.658;23.248;2022-10-16T07:29:59;94581.84;;;10.71;81.82
20111;BME280;10216;42.658;23.248;2022-10-16T07:32:24;94591.28;;;10.80;81.31
20111;BME280;10216;42.658;23.248;2022-10-16T07:34:51;94589.41;;;10.73;80.84
20111;BME280;10216;42.658;23.248;2022-10-16T07:37:17;94587.97;;;10.61;80.54
20111;BME280;10216;42.658;23.248;2022-10-16T07:39:42;94587.97;;;10.88;80.59
20111;BME280;10216;42.658;23.248;2022-10-16T07:42:08;94585.66;;;11.12;79.40
20111;BME280;10216;42.658;23.248;2022-10-16T07:44:33;94596.97;;;11.19;78.97
20111;BME280;10216;42.658;23.248;2022-10-16T07:46:58;94595.16;;;11.47;79.26
20111;BME280;10216;42.658;23.248;2022-10-16T07:49:24;94598.00;;;11.62;77.67
20111;BME280;10216;42.658;23.248;2022-10-16T07:51:49;94600.59;;;11.80;77.34
20111;BME280;10216;42.658;23.248;2022-10-16T07:54:15;94597.94;;;11.71;75.25
20111;BME280;10216;42.658;23.248;2022-10-16T07:56:40;94607.03;;;12.01;75.97
20111;BME280;10216;42.658;23.248;2022-10-16T07:59:06;94599.44;;;12.26;75.36
20111;BME280;10216;42.658;23.248;2022-10-16T08:01:31;94602.13;;;12.42;74.76
20111;BME280;10216;42.658;23.248;2022-10-16T08:03:59;94601.63;;;12.38;73.47
20111;BME280;10216;42.658;23.248;2022-10-16T08:06:24;94605.47;;;12.68;73.65
20111;BME280;10216;42.658;23.248;2022-10-16T08:08:49;94600.06;;;12.79;72.60
20111;BME280;10216;42.658;23.248;2022-10-16T08:11:15;94592.84;;;12.91;70.74
20111;BME280;10216;42.658;23.248;2022-10-16T08:13:41;94599.53;;;13.10;71.21
20111;BME280;10216;42.658;23.248;2022-10-16T08:16:07;94602.50;;;13.31;70.62
20111;BME280;10216;42.658;23.248;2022-10-16T08:18:37;94596.34;;;13.16;69.63
20111;BME280;10216;42.658;23.248;2022-10-16T08:21:04;94599.56;;;13.18;69.49
20111;BME280;10216;42.658;23.248;2022-10-16T08:23:30;94599.28;;;13.45;70.90
20111;BME280;10216;42.658;23.248;2022-10-16T08:26:01;94598.00;;;13.49;68.85
20111;BME280;10216;42.658;23.248;2022-10-16T08:28:26;94601.91;;;13.61;69.08
20111;BME280;10216;42.658;23.248;2022-10-16T08:30:52;94596.38;;;13.40;68.75
20111;BME280;10216;42.658;23.248;2022-10-16T08:33:17;94597.66;;;13.36;69.49
20111;BME280;10216;42.658;23.248;2022-10-16T08:35:43;94600.75;;;13.56;69.25
20111;BME280;10216;42.658;23.248;2022-10-16T08:38:15;94591.25;;;13.81;68.36
20111;BME280;10216;42.658;23.248;2022-10-16T08:40:42;94600.13;;;13.94;68.23
20111;BME280;10216;42.658;23.248;2022-10-16T08:48:26;94599.97;;;14.04;65.66
20111;BME280;10216;42.658;23.248;2022-10-16T08:50:54;94593.03;;;14.04;65.37
20111;BME280;10216;42.658;23.248;2022-10-16T08:53:28;94602.66;;;14.27;65.26
20111;BME280;10216;42.658;23.248;2022-10-16T08:55:55;94601.38;;;14.15;65.26
20111;BME280;10216;42.658;23.248;2022-10-16T08:58:22;94607.53;;;14.05;65.26
20111;BME280;10216;42.658;23.248;2022-10-16T09:00:56;94609.47;;;13.95;64.27
20111;BME280;10216;42.658;23.248;2022-10-16T09:09:10;94618.09;;;14.67;61.38
20111;BME280;10216;42.658;23.248;2022-10-16T09:16:59;94601.16;;;15.35;58.25
20111;BME280;10216;42.658;23.248;2022-10-16T09:19:39;94599.31;;;15.74;56.47
20111;BME280;10216;42.658;23.248;2022-10-16T09:22:15;94596.28;;;15.85;56.34
20111;BME280;10216;42.658;23.248;2022-10-16T09:24:41;94599.22;;;16.05;53.08
20111;BME280;10216;42.658;23.248;2022-10-16T09:27:14;94605.69;;;16.24;51.45
20111;BME280;10216;42.658;23.248;2022-10-16T09:29:40;94606.66;;;16.60;50.04
20111;BME280;10216;42.658;23.248;2022-10-16T09:32:19;94604.13;;;16.96;47.35
20111;BME280;10216;42.658;23.248;2022-10-16T09:34:49;94606.28;;;17.43;47.85
20111;BME280;10216;42.658;23.248;2022-10-16T09:37:18;94608.69;;;18.02;47.08
20111;BME280;10216;42.658;23.248;2022-10-16T09:39:49;94610.25;;;18.52;45.05
20111;BME280;10216;42.658;23.248;2022-10-16T09:42:31;94615.09;;;18.83;43.67
20111;BME280;10216;42.658;23.248;2022-10-16T09:44:58;94606.38;;;19.45;43.05
20111;BME280;10216;42.658;23.248;2022-10-16T09:47:27;94610.94;;;20.37;42.15
20111;BME280;10216;42.658;23.248;2022-10-16T09:49:56;94600.00;;;20.92;39.63
20111;BME280;10216;42.658;23.248;2022-10-16T09:52:24;94594.13;;;21.23;40.42
20111;BME280;10216;42.658;23.248;2022-10-16T09:55:13;94597.19;;;21.90;39.49
20111;BME280;10216;42.658;23.248;2022-10-16T09:57:53;94593.59;;;23.56;36.41
20111;BME280;10216;42.658;23.248;2022-10-16T10:00:19;94588.94;;;24.41;35.56
20111;BME280;10216;42.658;23.248;2022-10-16T10:02:45;94590.66;;;24.71;34.70
20111;BME280;10216;42.658;23.248;2022-10-16T10:05:28;94594.09;;;25.06;32.71
20111;BME280;10216;42.658;23.248;2022-10-16T10:07:58;94581.63;;;25.02;33.61
20111;BME280;10216;42.658;23.248;2022-10-16T10:10:26;94584.97;;;26.56;30.66
20111;BME280;10216;42.658;23.248;2022-10-16T10:12:53;94594.91;;;27.04;30.47
20111;BME280;10216;42.658;23.248;2022-10-16T10:15:19;94589.88;;;27.68;30.23
20111;BME280;10216;42.658;23.248;2022-10-16T10:17:54;94595.22;;;28.95;29.29
20111;BME280;10216;42.658;23.248;2022-10-16T10:22:48;94592.97;;;29.81;28.00
20111;BME280;10216;42.658;23.248;2022-10-16T10:25:32;94588.84;;;30.61;26.55
20111;BME280;10216;42.658;23.248;2022-10-16T10:40:46;94571.91;;;32.74;24.32
20111;BME280;10216;42.658;23.248;2022-10-16T10:43:44;94571.59;;;32.47;23.99
20111;BME280;10216;42.658;23.248;2022-10-16T10:46:26;94562.13;;;32.70;24.85
20111;BME280;10216;42.658;23.248;2022-10-16T10:54:42;94564.06;;;33.12;23.88
20111;BME280;10216;42.658;23.248;2022-10-16T10:57:34;94548.22;;;32.73;23.49
20111;BME280;10216;42.658;23.248;2022-10-16T11:00:54;94558.34;;;33.23;24.17
20111;BME280;10216;42.658;23.248;2022-10-16T11:08:15;94548.56;;;34.69;22.43
20111;BME280;10216;42.658;23.248;2022-10-16T11:10:52;94541.72;;;33.55;21.97
20111;BME280;10216;42.658;23.248;2022-10-16T11:13:27;94542.72;;;34.16;24.34
20111;BME280;10216;42.658;23.248;2022-10-16T11:15:59;94546.16;;;34.54;22.76
20111;BME280;10216;42.658;23.248;2022-10-16T11:18:55;94545.19;;;35.50;22.27
20111;BME280;10216;42.658;23.248;2022-10-16T11:21:22;94537.13;;;34.82;20.54
20111;BME280;10216;42.658;23.248;2022-10-16T11:23:58;94535.38;;;35.18;21.79
20111;BME280;10216;42.658;23.248;2022-10-16T11:26:29;94530.50;;;35.75;20.98
20111;BME280;10216;42.658;23.248;2022-10-16T11:28:58;94532.44;;;35.83;20.70
20111;BME280;10216;42.658;23.248;2022-10-16T11:31:39;94535.13;;;35.83;20.46
20111;BME280;10216;42.658;23.248;2022-10-16T11:34:29;94537.50;;;36.43;22.02
20111;BME280;10216;42.658;23.248;2022-10-16T11:37:05;94530.13;;;35.54;20.88
20111;BME280;10216;42.658;23.248;2022-10-16T11:39:33;94530.16;;;36.80;20.11
20111;BME280;10216;42.658;23.248;2022-10-16T11:55:42;94545.25;;;39.39;18.24
20111;BME280;10216;42.658;23.248;2022-10-16T11:58:26;94544.78;;;40.08;18.80
20111;BME280;10216;42.658;23.248;2022-10-16T12:01:00;94548.16;;;40.05;18.38
20111;BME280;10216;42.658;23.248;2022-10-16T12:08:40;94542.41;;;40.81;18.53
20111;BME280;10216;42.658;23.248;2022-10-16T12:19:20;94542.59;;;41.57;17.19
20111;BME280;10216;42.658;23.248;2022-10-16T12:21:46;94554.03;;;41.91;17.33
20111;BME280;10216;42.658;23.248;2022-10-16T12:26:58;94526.38;;;38.46;18.45
20111;BME280;10216;42.658;23.248;2022-10-16T12:31:57;94540.94;;;40.71;18.01
20111;BME280;10216;42.658;23.248;2022-10-16T12:36:51;94541.03;;;41.20;18.46
20111;BME280;10216;42.658;23.248;2022-10-16T12:44:51;94536.22;;;41.62;18.26
20111;BME280;10216;42.658;23.248;2022-10-16T12:49:58;94532.63;;;42.10;17.67
20111;BME280;10216;42.658;23.248;2022-10-16T12:52:31;94536.19;;;42.54;17.39
20111;BME280;10216;42.658;23.248;2022-10-16T12:55:00;94537.03;;;42.02;16.86
20111;BME280;10216;42.658;23.248;2022-10-16T13:03:33;94518.81;;;32.59;23.21
20111;BME280;10216;42.658;23.248;2022-10-16T13:06:13;94509.50;;;29.59;26.44
20111;BME280;10216;42.658;23.248;2022-10-16T13:17:23;94507.13;;;22.90;32.47
20111;BME280;10216;42.658;23.248;2022-10-16T13:23:30;94510.09;;;20.82;35.98
20111;BME280;10216;42.658;23.248;2022-10-16T13:28:28;94504.53;;;20.58;38.80
20111;BME280;10216;42.658;23.248;2022-10-16T13:30:57;94508.22;;;20.05;39.38
20111;BME280;10216;42.658;23.248;2022-10-16T13:33:37;94509.03;;;19.59;40.83
20111;BME280;10216;42.658;23.248;2022-10-16T13:36:17;94517.56;;;19.33;41.11
20111;BME280;10216;42.658;23.248;2022-10-16T13:38:43;94519.03;;;18.88;41.62
20111;BME280;10216;42.658;23.248;2022-10-16T13:41:17;94516.66;;;18.87;43.07
20111;BME280;10216;42.658;23.248;2022-10-16T13:43:45;94517.16;;;18.69;41.35
20111;BME280;10216;42.658;23.248;2022-10-16T13:46:17;94517.72;;;18.58;41.63
20111;BME280;10216;42.658;23.248;2022-10-16T13:48:43;94523.41;;;18.47;43.40
20111;BME280;10216;42.658;23.248;2022-10-16T13:51:12;94522.28;;;18.21;43.68
20111;BME280;10216;42.658;23.248;2022-10-16T13:53:38;94522.22;;;17.87;42.61
20111;BME280;10216;42.658;23.248;2022-10-16T13:56:06;94521.66;;;17.64;43.30
20111;BME280;10216;42.658;23.248;2022-10-16T13:58:32;94520.84;;;17.63;42.59
20111;BME280;10216;42.658;23.248;2022-10-16T14:01:00;94519.94;;;17.56;44.30
20111;BME280;10216;42.658;23.248;2022-10-16T14:03:27;94525.44;;;17.46;45.57
20111;BME280;10216;42.658;23.248;2022-10-16T14:05:55;94528.03;;;17.25;44.85
20111;BME280;10216;42.658;23.248;2022-10-16T14:08:23;94526.28;;;17.11;44.87
20111;BME280;10216;42.658;23.248;2022-10-16T14:10:52;94531.16;;;16.99;45.80
20111;BME280;10216;42.658;23.248;2022-10-16T14:13:23;94530.38;;;16.84;47.29
20111;BME280;10216;42.658;23.248;2022-10-16T14:15:51;94527.97;;;16.83;48.80
20111;BME280;10216;42.658;23.248;2022-10-16T14:18:21;94533.88;;;16.47;48.54
20111;BME280;10216;42.658;23.248;2022-10-16T14:20:48;94525.91;;;16.49;50.35
20111;BME280;10216;42.658;23.248;2022-10-16T14:23:32;94538.59;;;16.29;48.70
20111;BME280;10216;42.658;23.248;2022-10-16T14:26:26;94536.78;;;16.15;50.68
20111;BME280;10216;42.658;23.248;2022-10-16T14:29:13;94540.97;;;16.01;51.95
20111;BME280;10216;42.658;23.248;2022-10-16T14:31:38;94547.03;;;15.93;52.14
20111;BME280;10216;42.658;23.248;2022-10-16T14:34:23;94542.19;;;15.76;53.38
20111;BME280;10216;42.658;23.248;2022-10-16T14:36:49;94548.28;;;15.60;53.58
20111;BME280;10216;42.658;23.248;2022-10-16T14:39:20;94549.00;;;15.23;54.51
20111;BME280;10216;42.658;23.248;2022-10-16T14:41:48;94548.91;;;15.08;54.64
20111;BME280;10216;42.658;23.248;2022-10-16T14:44:14;94552.94;;;14.80;52.00
20111;BME280;10216;42.658;23.248;2022-10-16T14:46:43;94549.41;;;14.81;52.49
20111;BME280;10216;42.658;23.248;2022-10-16T14:51:35;94552.78;;;14.81;50.44
20111;BME280;10216;42.658;23.248;2022-10-16T14:54:00;94561.03;;;14.77;51.84
20111;BME280;10216;42.658;23.248;2022-10-16T14:56:34;94561.34;;;14.82;51.13
20111;BME280;10216;42.658;23.248;2022-10-16T14:59:14;94572.69;;;14.73;51.29
20111;BME280;10216;42.658;23.248;2022-10-16T15:01:43;94579.53;;;14.58;52.54
20111;BME280;10216;42.658;23.248;2022-10-16T15:04:11;94574.22;;;14.51;52.18